createdAt,value
2019-02-23T00:01:05.735Z,1040.5
2019-02-23T00:02:15.454Z,1040.44
2019-02-23T00:03:25.385Z,1040.46
2019-02-23T00:04:35.069Z,1040.46
2019-02-23T00:05:45.009Z,1040.44
2019-02-23T00:06:54.720Z,1040.38
2019-02-23T00:08:04.413Z,1040.37
2019-02-23T00:09:14.354Z,1040.36
2019-02-23T00:10:24.040Z,1040.33
2019-02-23T00:11:33.978Z,1040.33
2019-02-23T00:12:43.933Z,1040.27
2019-02-23T00:13:53.663Z,1040.24
2019-02-23T00:15:03.372Z,1040.18
2019-02-23T00:16:13.310Z,1040.24
2019-02-23T00:17:23.234Z,1040.21
2019-02-23T00:18:33.183Z,1040.2
2019-02-23T00:19:43.122Z,1040.17
2019-02-23T00:20:53.043Z,1040.21
2019-02-23T00:22:03.006Z,1040.25
2019-02-23T00:23:12.928Z,1040.24
2019-02-23T00:24:22.620Z,1040.24
2019-02-23T00:25:32.314Z,1040.26
2019-02-23T00:26:42.252Z,1040.3
2019-02-23T00:27:52.189Z,1040.35
2019-02-23T00:29:02.120Z,1040.4
2019-02-23T00:30:12.042Z,1040.44
2019-02-23T00:31:22.027Z,1040.44
2019-02-23T00:32:31.972Z,1040.43
2019-02-23T00:33:41.917Z,1040.44
2019-02-23T00:34:51.857Z,1040.49
2019-02-23T00:36:01.791Z,1040.55
2019-02-23T00:37:11.490Z,1040.57
2019-02-23T00:38:21.188Z,1040.56
2019-02-23T00:39:31.120Z,1040.52
2019-02-23T00:40:40.812Z,1040.39
2019-02-23T00:41:50.514Z,1040.3
2019-02-23T00:43:00.441Z,1040.3
2019-02-23T00:44:10.128Z,1040.23
2019-02-23T00:45:19.817Z,1040.15
2019-02-23T00:46:29.751Z,1040.14
2019-02-23T00:47:39.682Z,1040.14
2019-02-23T00:48:49.355Z,1040.15
2019-02-23T00:49:59.054Z,1040.1
2019-02-23T00:51:08.751Z,1040.13
2019-02-23T00:52:18.523Z,1040.1
2019-02-23T00:53:27.961Z,1040.09
2019-02-23T00:54:37.641Z,1040.16
2019-02-23T00:55:47.576Z,1040.21
2019-02-23T00:56:57.265Z,1040.22
2019-02-23T00:58:06.944Z,1040.24
2019-02-23T00:59:16.872Z,1040.23
2019-02-23T01:00:26.812Z,1040.26
2019-02-23T01:01:36.500Z,1040.25
2019-02-23T01:02:46.462Z,1040.31
2019-02-23T01:03:56.407Z,1040.29
2019-02-23T01:05:06.123Z,1040.26
2019-02-23T01:06:16.048Z,1040.25
2019-02-23T01:07:25.731Z,1040.28
2019-02-23T01:08:35.405Z,1040.25
2019-02-23T01:09:45.335Z,1040.32
2019-02-23T01:10:57.910Z,1040.28
2019-02-23T01:12:08.068Z,1040.27
2019-02-23T01:13:17.767Z,1040.33
2019-02-23T01:14:27.722Z,1040.29
2019-02-23T01:15:37.427Z,1040.25
2019-02-23T01:16:47.360Z,1040.22
2019-02-23T01:17:57.298Z,1040.18
2019-02-23T01:19:07.241Z,1040.09
2019-02-23T01:20:17.413Z,1040.05
2019-02-23T01:21:27.358Z,1040.03
2019-02-23T01:22:37.293Z,1039.97
2019-02-23T01:23:47.230Z,1040.02
2019-02-23T01:24:57.155Z,1040
2019-02-23T01:26:06.833Z,1039.95
2019-02-23T01:27:16.249Z,1039.95
2019-02-23T01:28:26.181Z,1039.94
2019-02-23T01:29:35.633Z,1039.91
2019-02-23T01:30:45.324Z,1039.9
2019-02-23T01:31:55.003Z,1039.9
2019-02-23T01:33:04.683Z,1039.93
2019-02-23T01:34:14.359Z,1039.86
2019-02-23T01:35:24.526Z,1039.82
2019-02-23T01:36:34.215Z,1039.8
2019-02-23T01:37:44.169Z,1039.74
2019-02-23T01:38:54.079Z,1039.73
2019-02-23T01:40:03.528Z,1039.66
2019-02-23T01:41:13.484Z,1039.67
2019-02-23T01:42:23.415Z,1039.67
2019-02-23T01:43:33.101Z,1039.66
2019-02-23T01:44:43.035Z,1039.65
2019-02-23T01:45:52.953Z,1039.66
2019-02-23T01:47:02.897Z,1039.65
2019-02-23T01:48:12.587Z,1039.6
2019-02-23T01:49:22.515Z,1039.54
2019-02-23T01:50:32.450Z,1039.55
2019-02-23T01:51:42.391Z,1039.5
2019-02-23T01:52:52.067Z,1039.6
2019-02-23T01:54:02.021Z,1039.52
2019-02-23T01:55:11.710Z,1039.53
2019-02-23T01:56:21.468Z,1039.45
2019-02-23T01:57:31.410Z,1039.44
2019-02-23T01:58:41.121Z,1039.46
2019-02-23T01:59:51.063Z,1039.47
2019-02-23T02:01:00.998Z,1039.46
2019-02-23T02:02:10.436Z,1039.54
2019-02-23T02:03:20.385Z,1039.47
2019-02-23T02:04:30.407Z,1039.55
2019-02-23T02:05:40.083Z,1039.61
2019-02-23T02:06:49.762Z,1039.58
2019-02-23T02:07:59.699Z,1039.63
2019-02-23T02:09:09.380Z,1039.6
2019-02-23T02:10:19.316Z,1039.61
2019-02-23T02:11:29.247Z,1039.58
2019-02-23T02:12:38.928Z,1039.52
2019-02-23T02:13:48.879Z,1039.41
2019-02-23T02:14:58.568Z,1039.45
2019-02-23T02:16:08.277Z,1039.51
2019-02-23T02:17:18.215Z,1039.55
2019-02-23T02:18:27.893Z,1039.54
2019-02-23T02:19:37.577Z,1039.59
2019-02-23T02:20:47.257Z,1039.59
2019-02-23T02:21:57.185Z,1039.57
2019-02-23T02:23:06.859Z,1039.59
2019-02-23T02:24:16.544Z,1039.53
2019-02-23T02:25:26.231Z,1039.5
2019-02-23T02:26:35.919Z,1039.48
2019-02-23T02:27:45.858Z,1039.45
2019-02-23T02:28:55.538Z,1039.41
2019-02-23T02:30:05.260Z,1039.36
2019-02-23T02:31:15.360Z,1039.35
2019-02-23T02:32:25.074Z,1039.34
2019-02-23T02:33:34.518Z,1039.32
2019-02-23T02:34:44.463Z,1039.32
2019-02-23T02:35:53.889Z,1039.3
2019-02-23T02:37:03.576Z,1039.32
2019-02-23T02:38:13.523Z,1039.38
2019-02-23T02:39:23.494Z,1039.34
2019-02-23T02:40:32.937Z,1039.32
2019-02-23T02:41:42.881Z,1039.35
2019-02-23T02:42:52.581Z,1039.33
2019-02-23T02:44:02.313Z,1039.36
2019-02-23T02:45:12.266Z,1039.32
2019-02-23T02:46:22.189Z,1039.35
2019-02-23T02:47:31.866Z,1039.38
2019-02-23T02:48:41.561Z,1039.34
2019-02-23T02:49:51.240Z,1039.31
2019-02-23T02:51:01.184Z,1039.35
2019-02-23T02:52:11.127Z,1039.31
2019-02-23T02:53:20.562Z,1039.31
2019-02-23T02:54:30.493Z,1039.32
2019-02-23T02:55:40.174Z,1039.3
2019-02-23T02:56:50.109Z,1039.17
2019-02-23T02:58:00.063Z,1039.16
2019-02-23T02:59:10.032Z,1039.13
2019-02-23T03:00:20.011Z,1039.13
2019-02-23T03:01:29.310Z,1039.15
2019-02-23T03:02:38.990Z,1039.07
2019-02-23T03:03:48.925Z,1039.04
2019-02-23T03:04:58.609Z,1039.02
2019-02-23T03:06:08.298Z,1039.03
2019-02-23T03:07:18.237Z,1038.96
2019-02-23T03:08:28.161Z,1038.9
2019-02-23T03:09:38.095Z,1038.88
2019-02-23T03:10:48.131Z,1038.81
2019-02-23T03:11:58.075Z,1038.78
2019-02-23T03:13:08.029Z,1038.77
2019-02-23T03:14:17.960Z,1038.75
2019-02-23T03:15:28.144Z,1038.76
2019-02-23T03:16:37.851Z,1038.78
2019-02-23T03:17:47.297Z,1038.83
2019-02-23T03:18:56.986Z,1038.87
2019-02-23T03:20:06.680Z,1038.91
2019-02-23T03:21:16.630Z,1038.95
2019-02-23T03:22:26.316Z,1038.89
2019-02-23T03:23:36.279Z,1038.97
2019-02-23T03:24:45.996Z,1038.93
2019-02-23T03:25:56.110Z,1038.93
2019-02-23T03:27:06.051Z,1038.93
2019-02-23T03:28:16.005Z,1038.97
2019-02-23T03:29:25.702Z,1039.01
2019-02-23T03:30:35.148Z,1039
2019-02-23T03:31:44.612Z,1038.93
2019-02-23T03:32:54.561Z,1038.98
2019-02-23T03:34:04.514Z,1038.94
2019-02-23T03:35:14.121Z,1038.96
2019-02-23T03:36:24.071Z,1039.03
2019-02-23T03:37:34.006Z,1039.05
2019-02-23T03:38:43.942Z,1039.07
2019-02-23T03:39:53.402Z,1039.11
2019-02-23T03:41:03.342Z,1039.09
2019-02-23T03:42:12.876Z,1039.12
2019-02-23T03:43:22.831Z,1039.13
2019-02-23T03:44:32.760Z,1039.16
2019-02-23T03:45:42.055Z,1039.12
2019-02-23T03:46:52.013Z,1039.05
2019-02-23T03:48:01.963Z,1039.05
2019-02-23T03:49:12.022Z,1039.02
2019-02-23T03:50:21.711Z,1039.06
2019-02-23T03:51:31.636Z,1039.04
2019-02-23T03:52:41.343Z,1039.09
2019-02-23T03:53:51.284Z,1039.15
2019-02-23T03:55:01.215Z,1039.13
2019-02-23T03:56:10.906Z,1039.18
2019-02-23T03:57:20.853Z,1039.2
2019-02-23T03:58:30.808Z,1039.17
2019-02-23T03:59:40.568Z,1039.23
2019-02-23T04:00:49.997Z,1039.2
2019-02-23T04:01:59.693Z,1039.27
2019-02-23T04:03:09.399Z,1039.22
2019-02-23T04:04:19.349Z,1039.21
2019-02-23T04:05:28.795Z,1039.2
2019-02-23T04:06:38.719Z,1039.19
2019-02-23T04:07:48.663Z,1039.19
2019-02-23T04:08:58.604Z,1039.16
2019-02-23T04:10:10.544Z,1039.09
2019-02-23T04:11:19.980Z,1039.1
2019-02-23T04:12:29.917Z,1039.06
2019-02-23T04:13:39.596Z,1039.06
2019-02-23T04:14:49.292Z,1039.1
2019-02-23T04:15:59.245Z,1039.08
2019-02-23T04:17:09.199Z,1039.13
2019-02-23T04:18:18.896Z,1039.1
2019-02-23T04:19:28.363Z,1039.1
2019-02-23T04:20:38.317Z,1039.14
2019-02-23T04:21:48.250Z,1039.11
2019-02-23T04:22:58.188Z,1039.17
2019-02-23T04:24:08.130Z,1039.19
2019-02-23T04:25:17.826Z,1039.16
2019-02-23T04:26:27.761Z,1039.18
2019-02-23T04:27:37.510Z,1039.13
2019-02-23T04:28:47.223Z,1039.16
2019-02-23T04:29:57.231Z,1039.22
2019-02-23T04:31:07.206Z,1039.25
2019-02-23T04:32:17.163Z,1039.28
2019-02-23T04:33:27.113Z,1039.33
2019-02-23T04:34:37.037Z,1039.36
2019-02-23T04:35:46.659Z,1039.44
2019-02-23T04:36:56.710Z,1039.47
2019-02-23T04:38:06.674Z,1039.53
2019-02-23T04:39:16.359Z,1039.59
2019-02-23T04:40:26.289Z,1039.58
2019-02-23T04:41:36.234Z,1039.59
2019-02-23T04:42:45.928Z,1039.59
2019-02-23T04:43:55.876Z,1039.64
2019-02-23T04:45:05.810Z,1039.61
2019-02-23T04:46:15.497Z,1039.65
2019-02-23T04:47:25.437Z,1039.61
2019-02-23T04:48:35.145Z,1039.57
2019-02-23T04:49:45.075Z,1039.52
2019-02-23T04:50:55.012Z,1039.53
2019-02-23T04:52:16.487Z,1039.48
2019-02-23T04:53:26.426Z,1039.46
2019-02-23T04:54:35.863Z,1039.42
2019-02-23T04:55:45.541Z,1039.38
2019-02-23T04:56:55.479Z,1039.39
2019-02-23T04:58:05.171Z,1039.46
2019-02-23T04:59:15.098Z,1039.45
2019-02-23T05:00:24.805Z,1039.47
2019-02-23T05:01:34.497Z,1039.43
2019-02-23T05:02:44.440Z,1039.49
2019-02-23T05:03:54.392Z,1039.46
2019-02-23T05:05:04.325Z,1039.44
2019-02-23T05:06:14.264Z,1039.43
2019-02-23T05:07:24.206Z,1039.37
2019-02-23T05:08:33.882Z,1039.36
2019-02-23T05:09:43.814Z,1039.4
2019-02-23T05:10:53.760Z,1039.39
2019-02-23T05:12:03.067Z,1039.41
2019-02-23T05:13:12.766Z,1039.44
2019-02-23T05:14:22.463Z,1039.39
2019-02-23T05:15:32.148Z,1039.45
2019-02-23T05:16:41.371Z,1039.4
2019-02-23T05:17:51.305Z,1039.44
2019-02-23T05:19:03.223Z,1039.41
2019-02-23T05:20:12.675Z,1039.44
2019-02-23T05:21:26.148Z,1039.44
2019-02-23T05:22:36.730Z,1039.45
2019-02-23T05:23:46.200Z,1039.42
2019-02-23T05:24:56.149Z,1039.46
2019-02-23T05:26:05.834Z,1039.44
2019-02-23T05:27:15.765Z,1039.42
2019-02-23T05:28:25.200Z,1039.38
2019-02-23T05:29:35.128Z,1039.39
2019-02-23T05:30:45.069Z,1039.43
2019-02-23T05:31:55.013Z,1039.49
2019-02-23T05:33:04.721Z,1039.48
2019-02-23T05:34:14.667Z,1039.46
2019-02-23T05:35:24.364Z,1039.44
2019-02-23T05:36:34.297Z,1039.46
2019-02-23T05:37:44.249Z,1039.42
2019-02-23T05:38:54.278Z,1039.38
2019-02-23T05:40:03.981Z,1039.4
2019-02-23T05:41:13.917Z,1039.36
2019-02-23T05:42:23.866Z,1039.41
2019-02-23T05:43:33.802Z,1039.4
2019-02-23T05:44:43.501Z,1039.4
2019-02-23T05:45:53.435Z,1039.47
2019-02-23T05:47:03.379Z,1039.46
2019-02-23T05:48:13.078Z,1039.45
2019-02-23T05:49:22.798Z,1039.49
2019-02-23T05:50:32.494Z,1039.54
2019-02-23T05:51:42.186Z,1039.53
2019-02-23T05:52:52.126Z,1039.5
2019-02-23T05:54:02.086Z,1039.48
2019-02-23T05:55:11.770Z,1039.52
2019-02-23T05:56:21.483Z,1039.51
2019-02-23T05:57:31.200Z,1039.51
2019-02-23T05:58:41.167Z,1039.55
2019-02-23T05:59:51.098Z,1039.57
2019-02-23T06:01:01.030Z,1039.6
2019-02-23T06:02:10.981Z,1039.63
2019-02-23T06:03:20.428Z,1039.61
2019-02-23T06:04:30.120Z,1039.62
2019-02-23T06:05:39.806Z,1039.66
2019-02-23T06:06:49.749Z,1039.7
2019-02-23T06:07:59.673Z,1039.68
2019-02-23T06:09:09.360Z,1039.65
2019-02-23T06:10:19.048Z,1039.63
2019-02-23T06:11:29.031Z,1039.6
2019-02-23T06:12:38.707Z,1039.62
2019-02-23T06:13:48.436Z,1039.61
2019-02-23T06:14:58.391Z,1039.62
2019-02-23T06:16:07.830Z,1039.58
2019-02-23T06:17:17.771Z,1039.58
2019-02-23T06:18:27.459Z,1039.48
2019-02-23T06:19:37.142Z,1039.48
2019-02-23T06:20:47.074Z,1039.52
2019-02-23T06:21:56.772Z,1039.54
2019-02-23T06:23:06.765Z,1039.6
2019-02-23T06:24:16.462Z,1039.67
2019-02-23T06:25:25.966Z,1039.77
2019-02-23T06:26:35.942Z,1039.74
2019-02-23T06:27:45.881Z,1039.8
2019-02-23T06:28:55.831Z,1039.81
2019-02-23T06:30:05.772Z,1039.87
2019-02-23T06:31:18.854Z,1039.9
2019-02-23T06:32:28.906Z,1039.95
2019-02-23T06:33:38.852Z,1039.97
2019-02-23T06:34:48.555Z,1040.04
2019-02-23T06:35:57.994Z,1040.05
2019-02-23T06:37:07.927Z,1039.99
2019-02-23T06:38:17.871Z,1039.92
2019-02-23T06:39:27.541Z,1039.95
2019-02-23T06:40:37.250Z,1039.98
2019-02-23T06:41:46.935Z,1040.03
2019-02-23T06:42:57.856Z,1040.06
2019-02-23T06:44:07.942Z,1039.97
2019-02-23T06:45:17.909Z,1039.97
2019-02-23T06:46:27.674Z,1039.93
2019-02-23T06:47:37.186Z,1039.9
2019-02-23T06:48:46.862Z,1039.85
2019-02-23T06:49:56.052Z,1039.84
2019-02-23T06:51:05.493Z,1039.82
2019-02-23T06:52:15.464Z,1039.75
2019-02-23T06:53:25.409Z,1039.64
2019-02-23T06:54:35.375Z,1039.6
2019-02-23T06:55:45.295Z,1039.51
2019-02-23T06:56:55.261Z,1039.48
2019-02-23T06:58:05.203Z,1039.49
2019-02-23T06:59:14.886Z,1039.43
2019-02-23T07:00:24.820Z,1039.48
2019-02-23T07:01:34.508Z,1039.45
2019-02-23T07:02:44.438Z,1039.51
2019-02-23T07:03:54.378Z,1039.59
2019-02-23T07:05:03.823Z,1039.64
2019-02-23T07:06:13.770Z,1039.67
2019-02-23T07:07:23.253Z,1039.68
2019-02-23T07:08:33.213Z,1039.72
2019-02-23T07:09:43.260Z,1039.71
2019-02-23T07:10:52.953Z,1039.71
2019-02-23T07:12:02.913Z,1039.73
2019-02-23T07:13:12.911Z,1039.83
2019-02-23T07:14:22.845Z,1039.88
2019-02-23T07:15:32.796Z,1039.92
2019-02-23T07:16:42.479Z,1039.95
2019-02-23T07:17:52.403Z,1039.99
2019-02-23T07:19:02.089Z,1040.03
2019-02-23T07:20:11.777Z,1040.06
2019-02-23T07:21:21.460Z,1040.05
2019-02-23T07:22:33.589Z,1040.02
2019-02-23T07:23:43.721Z,1040.04
2019-02-23T07:24:53.401Z,1040.07
2019-02-23T07:26:03.172Z,1040.1
2019-02-23T07:27:13.090Z,1040.15
2019-02-23T07:28:23.016Z,1040.13
2019-02-23T07:29:32.450Z,1040.11
2019-02-23T07:30:42.385Z,1040.04
2019-02-23T07:31:51.845Z,1039.97
2019-02-23T07:33:01.523Z,1040
2019-02-23T07:34:11.466Z,1040.01
2019-02-23T07:35:21.413Z,1040.05
2019-02-23T07:36:31.378Z,1040.16
2019-02-23T07:37:41.314Z,1040.23
2019-02-23T07:38:51.233Z,1040.29
2019-02-23T07:40:00.917Z,1040.31
2019-02-23T07:41:10.868Z,1040.24
2019-02-23T07:42:20.806Z,1040.2
2019-02-23T07:43:30.775Z,1040.05
2019-02-23T07:44:40.728Z,1040.04
2019-02-23T07:45:50.786Z,1040.01
2019-02-23T07:47:00.500Z,1040
2019-02-23T07:48:10.190Z,1039.98
2019-02-23T07:49:20.135Z,1039.91
2019-02-23T07:50:29.311Z,1039.9
2019-02-23T07:51:39.285Z,1039.84
2019-02-23T07:52:49.231Z,1039.8
2019-02-23T07:53:58.921Z,1039.77
2019-02-23T07:55:08.864Z,1039.65
2019-02-23T07:56:18.556Z,1039.51
2019-02-23T07:57:28.659Z,1039.52
2019-02-23T07:58:38.599Z,1039.49
2019-02-23T07:59:48.497Z,1039.43
2019-02-23T08:00:58.437Z,1039.4
2019-02-23T08:02:08.377Z,1039.27
2019-02-23T08:03:18.060Z,1039.21
2019-02-23T08:04:27.754Z,1039.14
2019-02-23T08:05:37.710Z,1039.16
2019-02-23T08:06:47.677Z,1039.18
2019-02-23T08:07:57.387Z,1039.16
2019-02-23T08:09:07.317Z,1039.22
2019-02-23T08:10:17.279Z,1039.18
2019-02-23T08:11:27.221Z,1039.24
2019-02-23T08:12:36.899Z,1039.41
2019-02-23T08:13:47.200Z,1039.51
2019-02-23T08:14:56.905Z,1039.49
2019-02-23T08:16:06.617Z,1039.55
2019-02-23T08:17:16.573Z,1039.58
2019-02-23T08:18:26.519Z,1039.55
2019-02-23T08:19:36.209Z,1039.57
2019-02-23T08:20:46.187Z,1039.61
2019-02-23T08:21:56.151Z,1039.6
2019-02-23T08:23:05.841Z,1039.63
2019-02-23T08:24:15.533Z,1039.71
2019-02-23T08:25:25.554Z,1039.69
2019-02-23T08:26:35.239Z,1039.59
2019-02-23T08:27:45.254Z,1039.64
2019-02-23T08:28:54.951Z,1039.67
2019-02-23T08:30:04.746Z,1039.73
2019-02-23T08:31:14.446Z,1039.72
2019-02-23T08:32:24.422Z,1039.74
2019-02-23T08:33:34.435Z,1039.75
2019-02-23T08:34:44.389Z,1039.75
2019-02-23T08:35:54.351Z,1039.76
2019-02-23T08:37:04.285Z,1039.73
2019-02-23T08:38:13.965Z,1039.67
2019-02-23T08:39:23.897Z,1039.75
2019-02-23T08:40:33.337Z,1039.73
2019-02-23T08:41:43.410Z,1039.7
2019-02-23T08:42:53.361Z,1039.75
2019-02-23T08:44:03.058Z,1039.76
2019-02-23T08:45:12.760Z,1039.75
2019-02-23T08:46:22.503Z,1039.71
2019-02-23T08:47:32.202Z,1039.69
2019-02-23T08:48:42.136Z,1039.67
2019-02-23T08:49:52.271Z,1039.66
2019-02-23T08:51:02.261Z,1039.69
2019-02-23T08:52:11.975Z,1039.76
2019-02-23T08:53:21.923Z,1039.84
2019-02-23T08:54:31.859Z,1039.81
2019-02-23T08:55:41.791Z,1039.81
2019-02-23T08:56:51.747Z,1039.77
2019-02-23T08:58:03.011Z,1039.79
2019-02-23T08:59:12.958Z,1039.82
2019-02-23T09:00:22.914Z,1039.79
2019-02-23T09:01:32.867Z,1039.8
2019-02-23T09:02:42.835Z,1039.79
2019-02-23T09:03:52.278Z,1039.74
2019-02-23T09:05:01.974Z,1039.79
2019-02-23T09:06:11.691Z,1039.75
2019-02-23T09:07:21.382Z,1039.73
2019-02-23T09:08:31.342Z,1039.75
2019-02-23T09:09:41.297Z,1039.73
2019-02-23T09:10:51.004Z,1039.75
2019-02-23T09:12:00.422Z,1039.75
2019-02-23T09:13:10.111Z,1039.76
2019-02-23T09:14:20.080Z,1039.7
2019-02-23T09:15:29.518Z,1039.73
2019-02-23T09:16:39.455Z,1039.73
2019-02-23T09:17:49.155Z,1039.76
2019-02-23T09:18:59.147Z,1039.8
2019-02-23T09:20:09.121Z,1039.81
2019-02-23T09:21:29.684Z,1039.79
2019-02-23T09:22:39.664Z,1039.85
2019-02-23T09:24:00.206Z,1039.84
2019-02-23T09:25:10.161Z,1039.81
2019-02-23T09:26:19.876Z,1039.79
2019-02-23T09:27:29.587Z,1039.85
2019-02-23T09:28:39.737Z,1039.81
2019-02-23T09:29:49.678Z,1039.86
2019-02-23T09:30:59.623Z,1039.83
2019-02-23T09:32:11.261Z,1039.77
2019-02-23T09:33:21.235Z,1039.72
2019-02-23T09:34:31.266Z,1039.74
2019-02-23T09:35:41.215Z,1039.71
2019-02-23T09:36:51.169Z,1039.64
2019-02-23T09:38:00.951Z,1039.65
2019-02-23T09:39:10.906Z,1039.68
2019-02-23T09:40:20.608Z,1039.62
2019-02-23T09:41:30.343Z,1039.64
2019-02-23T09:42:40.292Z,1039.59
2019-02-23T09:43:50.295Z,1039.61
2019-02-23T09:45:00.324Z,1039.68
2019-02-23T09:46:10.267Z,1039.7
2019-02-23T09:47:19.719Z,1039.69
2019-02-23T09:48:29.666Z,1039.64
2019-02-23T09:49:39.375Z,1039.65
2019-02-23T09:50:49.334Z,1039.67
2019-02-23T09:51:59.307Z,1039.61
2019-02-23T09:53:11.395Z,1039.67
2019-02-23T09:54:21.636Z,1039.61
2019-02-23T09:55:33.583Z,1039.65
2019-02-23T09:56:43.553Z,1039.64
2019-02-23T09:57:53.520Z,1039.62
2019-02-23T09:59:03.459Z,1039.59
2019-02-23T10:00:13.163Z,1039.57
2019-02-23T10:01:22.868Z,1039.61
2019-02-23T10:02:32.578Z,1039.7
2019-02-23T10:03:42.749Z,1039.68
2019-02-23T10:04:52.447Z,1039.71
2019-02-23T10:06:02.387Z,1039.66
2019-02-23T10:07:12.101Z,1039.7
2019-02-23T10:08:21.817Z,1039.67
2019-02-23T10:09:31.764Z,1039.65
2019-02-23T10:10:41.731Z,1039.65
2019-02-23T10:11:51.685Z,1039.61
2019-02-23T10:13:01.675Z,1039.56
2019-02-23T10:14:11.667Z,1039.57
2019-02-23T10:15:21.634Z,1039.55
2019-02-23T10:16:31.113Z,1039.5
2019-02-23T10:17:40.861Z,1039.5
2019-02-23T10:18:50.310Z,1039.52
2019-02-23T10:20:00.329Z,1039.43
2019-02-23T10:21:10.307Z,1039.47
2019-02-23T10:22:20.245Z,1039.48
2019-02-23T10:23:29.962Z,1039.43
2019-02-23T10:24:39.902Z,1039.44
2019-02-23T10:25:49.904Z,1039.46
2019-02-23T10:26:59.623Z,1039.34
2019-02-23T10:28:09.577Z,1039.36
2019-02-23T10:29:19.309Z,1039.37
2019-02-23T10:30:29.007Z,1039.39
2019-02-23T10:31:38.791Z,1039.31
2019-02-23T10:32:48.238Z,1039.36
2019-02-23T10:33:58.190Z,1039.22
2019-02-23T10:35:08.183Z,1039.23
2019-02-23T10:36:18.115Z,1039.27
2019-02-23T10:37:27.809Z,1039.23
2019-02-23T10:38:37.766Z,1039.26
2019-02-23T10:39:47.711Z,1039.21
2019-02-23T10:40:59.725Z,1039.24
2019-02-23T10:42:09.259Z,1039.22
2019-02-23T10:43:19.252Z,1039.22
2019-02-23T10:44:29.231Z,1039.21
2019-02-23T10:45:39.174Z,1039.2
2019-02-23T10:46:49.131Z,1039.25
2019-02-23T10:47:59.074Z,1039.21
2019-02-23T10:49:08.786Z,1039.19
2019-02-23T10:50:18.754Z,1039.05
2019-02-23T10:51:28.700Z,1039.09
2019-02-23T10:52:38.663Z,1039.07
2019-02-23T10:53:48.629Z,1039.03
2019-02-23T10:54:58.586Z,1039.04
2019-02-23T10:56:08.279Z,1039.08
2019-02-23T10:57:18.238Z,1039.08
2019-02-23T10:58:27.183Z,1039.15
2019-02-23T10:59:36.900Z,1039.14
2019-02-23T11:00:46.847Z,1039.15
2019-02-23T11:01:56.806Z,1039.12
2019-02-23T11:03:06.770Z,1039.09
2019-02-23T11:04:16.739Z,1039.11
2019-02-23T11:05:26.529Z,1039.1
2019-02-23T11:06:38.400Z,1039.09
2019-02-23T11:07:48.304Z,1039.03
2019-02-23T11:08:58.253Z,1039.01
2019-02-23T11:10:08.210Z,1039.03
2019-02-23T11:11:18.402Z,1039.01
2019-02-23T11:12:28.364Z,1038.99
2019-02-23T11:13:38.323Z,1039.01
2019-02-23T11:14:48.272Z,1039.03
2019-02-23T11:15:58.237Z,1039.03
2019-02-23T11:17:08.195Z,1039.01
2019-02-23T11:18:18.155Z,1039
2019-02-23T11:19:28.107Z,1039.08
2019-02-23T11:20:37.807Z,1039.01
2019-02-23T11:21:47.758Z,1039
2019-02-23T11:22:57.721Z,1039
2019-02-23T11:24:07.439Z,1039.01
2019-02-23T11:25:18.922Z,1038.99
2019-02-23T11:26:28.882Z,1038.94
2019-02-23T11:27:38.921Z,1038.92
2019-02-23T11:28:48.868Z,1038.9
2019-02-23T11:29:58.826Z,1038.92
2019-02-23T11:31:08.032Z,1038.91
2019-02-23T11:32:18.013Z,1038.92
2019-02-23T11:33:27.975Z,1038.84
2019-02-23T11:34:37.930Z,1038.82
2019-02-23T11:35:47.889Z,1038.75
2019-02-23T11:36:57.850Z,1038.71
2019-02-23T11:38:07.570Z,1038.7
2019-02-23T11:39:17.523Z,1038.74
2019-02-23T11:40:27.486Z,1038.74
2019-02-23T11:41:37.215Z,1038.79
2019-02-23T11:42:47.210Z,1038.81
2019-02-23T11:43:56.928Z,1038.75
2019-02-23T11:45:06.684Z,1038.73
2019-02-23T11:46:16.648Z,1038.7
2019-02-23T11:47:26.352Z,1038.65
2019-02-23T11:48:36.060Z,1038.64
2019-02-23T11:49:46.026Z,1038.54
2019-02-23T11:50:55.741Z,1038.54
2019-02-23T11:52:05.460Z,1038.52
2019-02-23T11:53:15.180Z,1038.55
2019-02-23T11:54:25.129Z,1038.49
2019-02-23T11:55:34.846Z,1038.54
2019-02-23T11:56:44.804Z,1038.55
2019-02-23T11:57:54.763Z,1038.48
2019-02-23T11:59:04.730Z,1038.5
2019-02-23T12:00:14.679Z,1038.53
2019-02-23T12:01:24.410Z,1038.6
2019-02-23T12:02:34.141Z,1038.54
2019-02-23T12:03:54.896Z,1038.54
2019-02-23T12:05:04.872Z,1038.49
2019-02-23T12:06:14.665Z,1038.45
2019-02-23T12:07:24.902Z,1038.39
2019-02-23T12:08:34.854Z,1038.4
2019-02-23T12:09:44.795Z,1038.37
2019-02-23T12:10:54.571Z,1038.37
2019-02-23T12:12:04.567Z,1038.43
2019-02-23T12:13:14.311Z,1038.33
2019-02-23T12:14:25.888Z,1038.33
2019-02-23T12:15:35.912Z,1038.34
2019-02-23T12:16:45.873Z,1038.36
2019-02-23T12:17:55.843Z,1038.44
2019-02-23T12:19:05.800Z,1038.38
2019-02-23T12:20:15.775Z,1038.39
2019-02-23T12:21:25.492Z,1038.4
2019-02-23T12:22:35.230Z,1038.4
2019-02-23T12:23:44.940Z,1038.47
2019-02-23T12:24:54.905Z,1038.47
2019-02-23T12:26:04.844Z,1038.43
2019-02-23T12:27:14.569Z,1038.42
2019-02-23T12:28:24.544Z,1038.43
2019-02-23T12:29:34.505Z,1038.45
2019-02-23T12:30:44.460Z,1038.43
2019-02-23T12:31:54.175Z,1038.47
2019-02-23T12:33:04.200Z,1038.5
2019-02-23T12:34:13.926Z,1038.57
2019-02-23T12:35:23.895Z,1038.5
2019-02-23T12:36:33.940Z,1038.54
2019-02-23T12:37:43.655Z,1038.55
2019-02-23T12:38:53.608Z,1038.52
2019-02-23T12:40:02.558Z,1038.53
2019-02-23T12:41:12.273Z,1038.49
2019-02-23T12:42:22.258Z,1038.45
2019-02-23T12:43:32.989Z,1038.46
2019-02-23T12:44:42.944Z,1038.49
2019-02-23T12:45:52.655Z,1038.48
2019-02-23T12:47:02.603Z,1038.49
2019-02-23T12:48:12.050Z,1038.5
2019-02-23T12:49:22.016Z,1038.5
2019-02-23T12:50:33.383Z,1038.44
2019-02-23T12:51:43.510Z,1038.46
2019-02-23T12:52:52.986Z,1038.37
2019-02-23T12:54:05.106Z,1038.36
2019-02-23T12:55:24.200Z,1038.35
2019-02-23T12:56:34.172Z,1038.31
2019-02-23T12:57:44.261Z,1038.32
2019-02-23T12:58:53.985Z,1038.28
2019-02-23T13:00:03.426Z,1038.26
2019-02-23T13:01:13.380Z,1038.31
2019-02-23T13:02:23.085Z,1038.33
2019-02-23T13:03:32.850Z,1038.3
2019-02-23T13:04:42.548Z,1038.29
2019-02-23T13:05:52.280Z,1038.31
2019-02-23T13:07:02.262Z,1038.33
2019-02-23T13:08:12.242Z,1038.32
2019-02-23T13:09:22.216Z,1038.28
2019-02-23T13:10:32.222Z,1038.25
2019-02-23T13:11:41.924Z,1038.24
2019-02-23T13:12:51.637Z,1038.21
2019-02-23T13:14:01.618Z,1038.25
2019-02-23T13:15:11.322Z,1038.18
2019-02-23T13:16:21.256Z,1038.18
2019-02-23T13:17:30.971Z,1038.16
2019-02-23T13:18:40.915Z,1038.13
2019-02-23T13:19:50.894Z,1038.21
2019-02-23T13:21:00.351Z,1038.16
2019-02-23T13:22:10.316Z,1038.12
2019-02-23T13:23:20.299Z,1038.09
2019-02-23T13:24:30.253Z,1038.13
2019-02-23T13:25:40.207Z,1038.1
2019-02-23T13:26:49.924Z,1038.08
2019-02-23T13:27:59.878Z,1038.02
2019-02-23T13:29:09.826Z,1037.96
2019-02-23T13:30:19.771Z,1037.85
2019-02-23T13:31:29.470Z,1037.8
2019-02-23T13:32:38.928Z,1037.81
2019-02-23T13:33:48.898Z,1037.78
2019-02-23T13:35:00.345Z,1037.71
2019-02-23T13:36:10.306Z,1037.69
2019-02-23T13:37:20.024Z,1037.64
2019-02-23T13:38:29.988Z,1037.65
2019-02-23T13:39:39.997Z,1037.59
2019-02-23T13:40:49.956Z,1037.59
2019-02-23T13:41:59.669Z,1037.57
2019-02-23T13:43:11.016Z,1037.53
2019-02-23T13:44:20.990Z,1037.56
2019-02-23T13:45:30.948Z,1037.54
2019-02-23T13:46:40.905Z,1037.47
2019-02-23T13:47:50.625Z,1037.51
2019-02-23T13:49:00.066Z,1037.52
2019-02-23T13:50:09.752Z,1037.49
2019-02-23T13:51:21.918Z,1037.5
2019-02-23T13:52:31.368Z,1037.48
2019-02-23T13:53:41.312Z,1037.5
2019-02-23T13:54:51.254Z,1037.46
2019-02-23T13:56:00.952Z,1037.48
2019-02-23T13:57:10.904Z,1037.42
2019-02-23T13:58:20.866Z,1037.38
2019-02-23T13:59:30.832Z,1037.39
2019-02-23T14:00:40.561Z,1037.33
2019-02-23T14:01:50.529Z,1037.4
2019-02-23T14:03:00.486Z,1037.4
2019-02-23T14:04:10.441Z,1037.4
2019-02-23T14:05:20.165Z,1037.38
2019-02-23T14:06:30.116Z,1037.4
2019-02-23T14:07:39.555Z,1037.33
2019-02-23T14:08:49.256Z,1037.35
2019-02-23T14:09:58.970Z,1037.36